Time;durP1;ratioP1;P1;durP2;ratioP2;P2;SDS_P1;SDS_P2;PMS_P1;PMS_P2;Temp;Humidity;BMP_temperature;BMP_pressure;BME280_temperature;BME280_humidity;BME280_pressure;Samples;Min_cycle;Max_cycle;Signal;HPM_P1;HPM_P2
2023/06/01 00:01:01;;;;;;;;;;;;;;;15.50;47.38;96590.47;5107075;28;19963;-73
2023/06/01 00:03:29;;;;;;;;;;;;;;;15.46;46.91;96590.16;5106970;28;20251;-79
2023/06/01 00:05:56;;;;;;;;;;;;;;;15.43;46.73;96591.44;5089100;28;20121;-72
2023/06/01 00:08:22;;;;;;;;;;;;;;;15.41;47.91;96584.78;5107196;28;19959;-72
2023/06/01 00:10:48;;;;;;;;;;;;;;;15.38;47.26;96583.44;5107039;28;19952;-73
2023/06/01 00:13:14;;;;;;;;;;;;;;;15.38;47.43;96583.44;5072748;28;19985;-72
2023/06/01 00:15:40;;;;;;;;;;;;;;;15.39;47.51;96578.94;5106483;28;20160;-72
2023/06/01 00:18:08;;;;;;;;;;;;;;;15.39;48.36;96582.41;5106563;28;19956;-73
2023/06/01 00:20:34;;;;;;;;;;;;;;;15.39;48.60;96587.69;5107132;28;20109;-73
2023/06/01 00:23:00;;;;;;;;;;;;;;;15.39;49.63;96587.69;5107081;28;19948;-72
2023/06/01 00:25:26;;;;;;;;;;;;;;;15.40;49.34;96583.97;5106562;28;20332;-73
2023/06/01 00:27:52;;;;;;;;;;;;;;;15.40;49.01;96581.34;5106560;28;20231;-73
2023/06/01 00:30:18;;;;;;;;;;;;;;;15.39;49.50;96587.69;5106526;28;19965;-73
2023/06/01 00:32:44;;;;;;;;;;;;;;;15.37;48.35;96576.56;5106096;28;19963;-73
2023/06/01 00:35:10;;;;;;;;;;;;;;;15.34;49.10;96579.69;5106720;28;19954;-74
2023/06/01 00:37:35;;;;;;;;;;;;;;;15.27;47.89;96576.44;5106564;28;19961;-73
2023/06/01 00:40:01;;;;;;;;;;;;;;;15.21;48.67;96580.84;5106692;28;19953;-84
2023/06/01 00:42:27;;;;;;;;;;;;;;;15.18;48.80;96573.41;5106527;28;19972;-84
2023/06/01 00:44:53;;;;;;;;;;;;;;;15.15;49.75;96575.72;5106057;28;19957;-85
2023/06/01 00:47:19;;;;;;;;;;;;;;;15.13;49.27;96573.31;5088542;28;20272;-85
2023/06/01 00:49:46;;;;;;;;;;;;;;;15.10;48.66;96570.34;5088272;28;19955;-84
2023/06/01 00:52:12;;;;;;;;;;;;;;;15.06;49.01;96572.72;5106379;28;20103;-86
2023/06/01 00:54:38;;;;;;;;;;;;;;;15.02;49.46;96567.09;5087878;28;20011;-85
2023/06/01 00:57:05;;;;;;;;;;;;;;;15.00;49.71;96569.19;5106101;28;19977;-73
2023/06/01 00:59:32;;;;;;;;;;;;;;;14.98;49.72;96565.19;5105957;28;19966;-73
2023/06/01 01:01:57;;;;;;;;;;;;;;;14.95;50.07;96566.50;5105585;28;19952;-73
2023/06/01 01:04:25;;;;;;;;;;;;;;;14.94;50.32;96569.38;5106114;28;19964;-72
2023/06/01 01:07:20;;;;;;;;;;;;;;;14.90;49.03;96566.41;5106009;28;19957;-72
2023/06/01 01:09:48;;;;;;;;;;;;;;;14.87;49.64;96566.91;5105552;28;19959;-73
2023/06/01 01:12:23;;;;;;;;;;;;;;;14.82;50.21;96567.63;5105634;28;20141;-72
2023/06/01 01:14:51;;;;;;;;;;;;;;;14.79;49.86;96568.09;5105640;28;19960;-85
2023/06/01 01:17:26;;;;;;;;;;;;;;;14.77;50.82;96564.09;5087412;28;19981;-78
2023/06/01 01:20:08;;;;;;;;;;;;;;;14.74;51.19;96567.22;5087600;28;19957;-77
2023/06/01 01:22:43;;;;;;;;;;;;;;;14.71;50.46;96572.97;5105737;28;19952;-79
2023/06/01 01:25:15;;;;;;;;;;;;;;;14.67;49.82;96572.66;5105727;28;19978;-78
2023/06/01 01:27:56;;;;;;;;;;;;;;;14.66;50.78;96567.59;5105188;28;19943;-78
2023/06/01 01:30:26;;;;;;;;;;;;;;;14.64;51.00;96567.88;5105403;28;19963;-78
2023/06/01 01:32:53;;;;;;;;;;;;;;;14.63;50.94;96571.53;5105181;28;19962;-74
2023/06/01 01:35:20;;;;;;;;;;;;;;;14.64;50.93;96578.44;5105529;28;19960;-76
2023/06/01 01:37:53;;;;;;;;;;;;;;;14.62;50.28;96569.94;5105192;28;19955;-78
2023/06/01 01:40:19;;;;;;;;;;;;;;;14.63;51.67;96579.44;5105358;28;19954;-79
2023/06/01 01:42:46;;;;;;;;;;;;;;;14.62;50.88;96564.66;5105410;28;19959;-78
2023/06/01 01:45:13;;;;;;;;;;;;;;;14.60;51.20;96575.47;5105309;28;19951;-80
2023/06/01 01:47:48;;;;;;;;;;;;;;;14.58;51.26;96572.25;5105247;28;19958;-79
2023/06/01 01:50:16;;;;;;;;;;;;;;;14.56;51.28;96571.69;5105120;28;20148;-79
2023/06/01 01:52:42;;;;;;;;;;;;;;;14.56;52.47;96574.34;5104794;28;19949;-73
2023/06/01 01:55:09;;;;;;;;;;;;;;;14.55;51.54;96577.19;5104812;28;20228;-73
2023/06/01 01:57:35;;;;;;;;;;;;;;;14.48;52.00;96573.91;5104707;28;19966;-73
2023/06/01 02:00:02;;;;;;;;;;;;;;;14.45;52.63;96579.66;5104536;28;19956;-72
2023/06/01 02:02:30;;;;;;;;;;;;;;;14.43;53.25;96568.56;5086448;28;19954;-74
2023/06/01 02:04:56;;;;;;;;;;;;;;;14.41;53.77;96568.78;5104858;28;20283;-73
2023/06/01 02:07:22;;;;;;;;;;;;;;;14.39;53.63;96566.38;5104759;28;20286;-72
2023/06/01 02:09:48;;;;;;;;;;;;;;;14.38;53.69;96558.69;5104981;28;19954;-73
2023/06/01 02:12:14;;;;;;;;;;;;;;;14.37;54.26;96559.75;5104962;28;19949;-73
2023/06/01 02:14:40;;;;;;;;;;;;;;;14.35;53.57;96562.63;5104157;28;19956;-73
2023/06/01 02:17:07;;;;;;;;;;;;;;;14.32;53.67;96563.13;5104227;28;19971;-72
2023/06/01 02:19:33;;;;;;;;;;;;;;;14.30;53.86;96556.44;5104589;28;19956;-73
2023/06/01 02:21:59;;;;;;;;;;;;;;;14.26;54.19;96552.69;5104395;28;19995;-72
2023/06/01 02:24:25;;;;;;;;;;;;;;;14.23;54.63;96558.47;5104341;28;19996;-72
2023/06/01 02:26:53;;;;;;;;;;;;;;;14.15;54.59;96559.63;5104418;28;19953;-73
2023/06/01 02:29:22;;;;;;;;;;;;;;;14.10;54.80;96565.63;5104399;28;19962;-77
2023/06/01 02:31:49;;;;;;;;;;;;;;;14.06;53.97;96559.22;5086447;28;19953;-78
2023/06/01 02:34:15;;;;;;;;;;;;;;;14.04;54.99;96557.88;5086447;28;20334;-78
2023/06/01 02:36:41;;;;;;;;;;;;;;;13.98;55.12;96560.44;5104487;28;20002;-78
2023/06/01 02:39:07;;;;;;;;;;;;;;;13.94;54.69;96558.47;5104518;28;19961;-77
2023/06/01 02:41:32;;;;;;;;;;;;;;;13.87;54.82;96555.97;5104539;28;19953;-78
2023/06/01 02:43:58;;;;;;;;;;;;;;;13.84;55.78;96548.56;5104540;28;20235;-77
2023/06/01 02:46:24;;;;;;;;;;;;;;;13.82;55.29;96558.53;5104724;28;19950;-74
2023/06/01 02:48:51;;;;;;;;;;;;;;;13.78;55.60;96552.94;5086033;28;19961;-73
2023/06/01 02:51:18;;;;;;;;;;;;;;;13.75;55.63;96552.59;5104421;28;19951;-83
2023/06/01 02:53:46;;;;;;;;;;;;;;;13.73;55.41;96554.66;5104100;28;19950;-83
2023/06/01 02:56:12;;;;;;;;;;;;;;;13.71;55.38;96549.66;5086249;28;20256;-83
2023/06/01 02:58:38;;;;;;;;;;;;;;;13.68;56.50;96554.56;5104354;28;19953;-84
2023/06/01 03:01:04;;;;;;;;;;;;;;;13.65;55.79;96558.50;5085941;28;19989;-81
2023/06/01 03:03:30;;;;;;;;;;;;;;;13.62;56.07;96558.16;5104412;28;20137;-77
2023/06/01 03:05:57;;;;;;;;;;;;;;;13.57;56.05;96561.50;5086181;28;19952;-73
2023/06/01 03:08:24;;;;;;;;;;;;;;;13.55;55.91;96561.72;5104323;28;19961;-80
2023/06/01 03:10:50;;;;;;;;;;;;;;;13.54;56.40;96559.31;5085895;28;19966;-83
2023/06/01 03:13:16;;;;;;;;;;;;;;;13.50;57.30;96564.25;5085835;28;20261;-83
2023/06/01 03:15:42;;;;;;;;;;;;;;;13.44;57.96;96565.19;5104013;28;19944;-84
2023/06/01 03:18:08;;;;;;;;;;;;;;;13.40;58.27;96553.53;5104225;28;19970;-83
2023/06/01 03:20:34;;;;;;;;;;;;;;;13.36;58.58;96558.44;5104613;28;20219;-82
2023/06/01 03:23:00;;;;;;;;;;;;;;;13.32;58.32;96552.03;5104014;28;20145;-84
2023/06/01 03:25:26;;;;;;;;;;;;;;;13.32;58.75;96561.78;5069592;28;19984;-75
2023/06/01 03:27:52;;;;;;;;;;;;;;;13.31;58.96;96565.44;5107700;28;19956;-75
2023/06/01 03:30:18;;;;;;;;;;;;;;;13.29;59.14;96565.69;5107751;28;19950;-75
2023/06/01 03:32:44;;;;;;;;;;;;;;;13.28;58.44;96558.78;5107768;28;20123;-74
2023/06/01 03:35:11;;;;;;;;;;;;;;;13.31;58.54;96562.78;5107850;28;19957;-75
2023/06/01 03:37:38;;;;;;;;;;;;;;;13.33;58.35;96558.09;5107672;28;19964;-75
2023/06/01 03:40:10;;;;;;;;;;;;;;;13.37;57.37;96561.88;5107858;28;19958;-76
2023/06/01 03:42:46;;;;;;;;;;;;;;;13.38;57.13;96561.66;5107674;28;19939;-76
2023/06/01 03:45:13;;;;;;;;;;;;;;;13.40;57.71;96564.06;5107194;28;19951;-73
2023/06/01 03:47:39;;;;;;;;;;;;;;;13.38;58.24;96569.53;5107459;28;19957;-73
2023/06/01 03:50:07;;;;;;;;;;;;;;;13.34;58.63;96578.16;5107258;28;19950;-73
2023/06/01 03:52:32;;;;;;;;;;;;;;;13.27;59.45;96569.53;5107226;28;20143;-73
2023/06/01 03:55:01;;;;;;;;;;;;;;;13.20;59.77;96577.56;5107227;28;19957;-74
2023/06/01 03:57:26;;;;;;;;;;;;;;;13.12;59.59;96589.25;5107111;28;19968;-73
2023/06/01 03:59:52;;;;;;;;;;;;;;;13.05;60.09;96575.41;5107458;28;19957;-74
2023/06/01 04:02:19;;;;;;;;;;;;;;;13.02;60.57;96577.69;5107305;28;20131;-75
2023/06/01 04:04:45;;;;;;;;;;;;;;;12.99;60.61;96579.75;5107274;28;19949;-77
2023/06/01 04:07:14;;;;;;;;;;;;;;;13.03;60.52;96576.66;5107260;28;20256;-77
2023/06/01 04:09:40;;;;;;;;;;;;;;;13.06;60.22;96577.00;5107407;28;19941;-77
2023/06/01 04:12:07;;;;;;;;;;;;;;;13.11;59.47;96576.31;5107184;28;19953;-76
2023/06/01 04:14:32;;;;;;;;;;;;;;;13.15;59.79;96572.19;5107324;28;19951;-76
2023/06/01 04:16:58;;;;;;;;;;;;;;;13.22;60.19;96578.13;5106613;28;19968;-76
2023/06/01 04:19:24;;;;;;;;;;;;;;;13.29;60.74;96581.47;5088605;28;19959;-72
2023/06/01 04:21:50;;;;;;;;;;;;;;;13.33;61.25;96580.00;5106781;28;19955;-73
2023/06/01 04:24:16;;;;;;;;;;;;;;;13.38;61.17;96585.34;5106712;28;19985;-73
2023/06/01 04:26:42;;;;;;;;;;;;;;;13.43;60.86;96584.66;5088587;28;20155;-73
2023/06/01 04:29:11;;;;;;;;;;;;;;;13.49;60.54;96585.56;5106914;28;19949;-73
2023/06/01 04:31:38;;;;;;;;;;;;;;;13.55;62.07;96590.69;5106554;28;19958;-72
2023/06/01 04:34:05;;;;;;;;;;;;;;;13.65;60.82;96589.28;5106734;28;20214;-72
2023/06/01 04:36:38;;;;;;;;;;;;;;;13.76;57.72;96586.63;5106499;28;19972;-74
2023/06/01 04:39:08;;;;;;;;;;;;;;;13.86;58.23;96591.31;5088327;28;19958;-77
2023/06/01 04:41:37;;;;;;;;;;;;;;;13.95;56.83;96587.25;5088753;28;20122;-78
2023/06/01 04:44:07;;;;;;;;;;;;;;;14.04;56.82;96589.50;5106142;28;19965;-78
2023/06/01 04:46:32;;;;;;;;;;;;;;;14.13;57.18;96586.25;5106133;28;19943;-78
2023/06/01 04:49:00;;;;;;;;;;;;;;;14.24;57.38;96589.06;5106463;28;20256;-77
2023/06/01 04:51:27;;;;;;;;;;;;;;;14.34;57.83;96595.34;5106081;28;19959;-77
2023/06/01 04:53:53;;;;;;;;;;;;;;;14.44;57.05;96592.03;5106416;28;20252;-78
2023/06/01 04:56:29;;;;;;;;;;;;;;;14.49;57.15;96593.97;5106179;28;20137;-73
2023/06/01 04:58:55;;;;;;;;;;;;;;;14.53;58.55;96593.28;5106336;28;19950;-77
2023/06/01 05:01:24;;;;;;;;;;;;;;;14.63;58.94;96608.47;5106179;28;19943;-76
2023/06/01 05:03:52;;;;;;;;;;;;;;;14.78;58.19;96600.00;5105760;28;19957;-76
2023/06/01 05:06:19;;;;;;;;;;;;;;;14.93;57.02;96602.06;5106103;28;19953;-77
2023/06/01 05:08:45;;;;;;;;;;;;;;;15.09;57.29;96592.53;5106143;28;19962;-77
2023/06/01 05:11:11;;;;;;;;;;;;;;;15.28;57.05;96595.72;5105484;28;20120;-77
2023/06/01 05:13:38;;;;;;;;;;;;;;;15.51;56.23;96598.13;5106082;28;19958;-75
2023/06/01 05:16:04;;;;;;;;;;;;;;;15.75;57.21;96593.44;5087724;28;19956;-78
2023/06/01 05:18:31;;;;;;;;;;;;;;;15.98;56.31;96597.66;5105797;28;19964;-82
2023/06/01 05:20:56;;;;;;;;;;;;;;;16.23;55.37;96591.00;5087451;28;19952;-83
2023/06/01 05:23:23;;;;;;;;;;;;;;;16.50;55.97;96585.69;5105849;28;19946;-83
2023/06/01 05:25:49;;;;;;;;;;;;;;;16.78;54.82;96587.25;5087480;28;20232;-83
2023/06/01 05:28:14;;;;;;;;;;;;;;;17.06;53.16;96574.75;5105695;28;19961;-82
2023/06/01 05:30:40;;;;;;;;;;;;;;;17.31;53.01;96581.25;5105070;28;19938;-82
2023/06/01 05:33:06;;;;;;;;;;;;;;;17.54;52.89;96577.38;5087707;28;20783;-72
2023/06/01 05:35:32;;;;;;;;;;;;;;;17.79;51.20;96577.47;5105463;28;19957;-73
2023/06/01 05:37:58;;;;;;;;;;;;;;;18.03;50.48;96569.88;5105076;28;19974;-73
2023/06/01 05:40:24;;;;;;;;;;;;;;;18.23;48.94;96576.28;5105088;28;19953;-72
2023/06/01 05:42:50;;;;;;;;;;;;;;;18.34;48.55;96575.22;5086696;28;19959;-73
2023/06/01 05:45:16;;;;;;;;;;;;;;;18.48;48.30;96578.16;5105129;28;19955;-74
2023/06/01 05:47:42;;;;;;;;;;;;;;;18.63;48.56;96572.84;5105145;28;19964;-72
2023/06/01 05:50:08;;;;;;;;;;;;;;;18.83;47.96;96582.69;5104165;28;19947;-72
2023/06/01 05:52:34;;;;;;;;;;;;;;;19.05;47.59;96581.63;5105195;28;19957;-74
2023/06/01 05:54:59;;;;;;;;;;;;;;;19.29;47.44;96579.16;5105156;28;20140;-78
2023/06/01 05:57:25;;;;;;;;;;;;;;;19.45;46.65;96586.03;5105160;28;19962;-77
2023/06/01 05:59:53;;;;;;;;;;;;;;;19.68;46.83;96586.50;5105107;28;19961;-78
2023/06/01 06:02:19;;;;;;;;;;;;;;;19.88;46.09;96588.28;5104598;28;19964;-79
2023/06/01 06:04:45;;;;;;;;;;;;;;;20.04;45.96;96581.81;5105144;28;19948;-78
2023/06/01 06:07:11;;;;;;;;;;;;;;;20.22;45.98;96585.72;5105027;28;19960;-77
2023/06/01 06:09:37;;;;;;;;;;;;;;;20.38;44.94;96594.38;5104632;28;19952;-73
2023/06/01 06:12:03;;;;;;;;;;;;;;;20.52;44.77;96596.44;5104941;28;19952;-79
2023/06/01 06:14:29;;;;;;;;;;;;;;;20.56;42.86;96582.28;5086505;28;19935;-72
2023/06/01 06:16:55;;;;;;;;;;;;;;;20.60;44.06;96593.19;5104857;28;20036;-74
2023/06/01 06:19:21;;;;;;;;;;;;;;;20.69;44.24;96591.53;5086470;28;19969;-73
2023/06/01 06:21:47;;;;;;;;;;;;;;;20.81;43.42;96589.28;5104693;28;19959;-73
2023/06/01 06:24:13;;;;;;;;;;;;;;;20.95;42.97;96586.75;5104626;28;20004;-73
2023/06/01 06:26:39;;;;;;;;;;;;;;;21.04;43.28;96589.59;5104630;28;19980;-73
2023/06/01 06:29:05;;;;;;;;;;;;;;;21.13;42.83;96585.25;5104677;28;19954;-78
2023/06/01 06:31:31;;;;;;;;;;;;;;;21.22;43.36;96585.44;5086765;28;19953;-83
2023/06/01 06:33:57;;;;;;;;;;;;;;;21.31;43.18;96578.41;5104714;28;20107;-83
2023/06/01 06:36:23;;;;;;;;;;;;;;;21.36;42.15;96581.03;5104747;28;20108;-85
2023/06/01 06:38:49;;;;;;;;;;;;;;;21.45;42.68;96586.56;5104249;28;19964;-83
2023/06/01 06:41:14;;;;;;;;;;;;;;;21.55;42.43;96582.97;5104166;28;19962;-86
2023/06/01 06:43:40;;;;;;;;;;;;;;;21.60;40.72;96582.91;5104553;28;19952;-85
2023/06/01 06:46:07;;;;;;;;;;;;;;;21.63;41.72;96593.03;5104378;28;20171;-73
2023/06/01 06:48:33;;;;;;;;;;;;;;;21.60;41.62;96588.25;5104573;28;19953;-78
2023/06/01 06:50:58;;;;;;;;;;;;;;;21.57;41.23;96586.94;5104362;28;19948;-75
2023/06/01 06:53:24;;;;;;;;;;;;;;;21.55;41.69;96585.66;5103967;28;19960;-75
2023/06/01 06:55:50;;;;;;;;;;;;;;;21.57;42.07;96586.94;5104272;28;20232;-74
2023/06/01 06:58:16;;;;;;;;;;;;;;;21.59;42.01;96587.47;5104275;28;19972;-76
2023/06/01 07:00:43;;;;;;;;;;;;;;;21.63;41.66;96579.69;5105763;28;19976;-75
2023/06/01 07:03:09;;;;;;;;;;;;;;;21.67;41.60;96586.84;5108019;28;19960;-75
2023/06/01 07:05:35;;;;;;;;;;;;;;;21.73;42.43;96584.09;5108660;28;20148;-76
2023/06/01 07:08:01;;;;;;;;;;;;;;;21.79;41.82;96581.06;5108632;28;19952;-73
2023/06/01 07:10:27;;;;;;;;;;;;;;;21.88;40.74;96584.69;5107448;28;19955;-73
2023/06/01 07:12:52;;;;;;;;;;;;;;;21.97;41.58;96587.53;5107854;28;20006;-72
2023/06/01 07:15:18;;;;;;;;;;;;;;;22.04;41.17;96582.59;5108350;28;19947;-72
2023/06/01 07:17:44;;;;;;;;;;;;;;;22.00;40.17;96583.47;5107950;28;19987;-71
2023/06/01 07:20:11;;;;;;;;;;;;;;;21.94;41.09;96582.75;5108078;28;20240;-71
2023/06/01 07:22:37;;;;;;;;;;;;;;;21.95;41.11;96587.00;5107656;28;19945;-72
2023/06/01 07:25:03;;;;;;;;;;;;;;;21.93;40.83;96580.38;5108127;28;20226;-72
2023/06/01 07:27:29;;;;;;;;;;;;;;;21.94;41.33;96585.41;5108086;28;19968;-87
2023/06/01 07:29:55;;;;;;;;;;;;;;;21.99;41.23;96581.91;5107576;28;19940;-87
2023/06/01 07:32:22;;;;;;;;;;;;;;;22.01;41.19;96577.84;5090048;28;20125;-88
2023/06/01 07:34:48;;;;;;;;;;;;;;;22.02;40.68;96583.97;5108141;28;19958;-86
2023/06/01 07:37:14;;;;;;;;;;;;;;;22.05;40.41;96586.09;5107486;28;19956;-88
2023/06/01 07:39:39;;;;;;;;;;;;;;;22.09;41.07;96576.44;5089261;28;19966;-87
2023/06/01 07:42:05;;;;;;;;;;;;;;;22.15;41.33;96580.59;5107675;28;19956;-74
2023/06/01 07:44:31;;;;;;;;;;;;;;;22.19;41.62;96583.47;5107484;28;20079;-78
2023/06/01 07:46:57;;;;;;;;;;;;;;;22.26;41.85;96582.06;5107489;28;19960;-77
2023/06/01 07:49:23;;;;;;;;;;;;;;;22.29;41.63;96580.69;5107474;28;19957;-80
2023/06/01 07:51:51;;;;;;;;;;;;;;;22.39;42.04;96583.22;5107740;28;19956;-78
2023/06/01 07:54:17;;;;;;;;;;;;;;;22.56;41.82;96579.22;5107585;28;19958;-78
2023/06/01 07:56:43;;;;;;;;;;;;;;;22.68;41.54;96584.94;5107568;28;19971;-79
2023/06/01 07:59:09;;;;;;;;;;;;;;;22.76;41.14;96578.88;5107321;28;20212;-79
2023/06/01 08:01:35;;;;;;;;;;;;;;;22.81;40.83;96572.69;5107435;28;19962;-72
2023/06/01 08:04:01;;;;;;;;;;;;;;;22.87;40.93;96577.63;5107419;28;19954;-71
2023/06/01 08:06:27;;;;;;;;;;;;;;;23.00;41.06;96575.28;5107549;28;19993;-73
2023/06/01 08:08:53;;;;;;;;;;;;;;;23.08;41.16;96577.31;5106918;28;20018;-72
2023/06/01 08:11:19;;;;;;;;;;;;;;;23.16;41.02;96578.50;5106840;28;19956;-72
2023/06/01 08:13:48;;;;;;;;;;;;;;;23.16;41.51;96576.66;5106325;28;19960;-73
2023/06/01 08:16:14;;;;;;;;;;;;;;;23.26;41.10;96575.63;5106901;28;19958;-72
2023/06/01 08:18:40;;;;;;;;;;;;;;;23.38;40.89;96565.25;5106966;28;20235;-74
2023/06/01 08:21:08;;;;;;;;;;;;;;;23.40;40.64;96570.31;5088823;28;20053;-75
2023/06/01 08:23:35;;;;;;;;;;;;;;;23.38;41.91;96567.13;5106952;28;19951;-75
2023/06/01 08:26:01;;;;;;;;;;;;;;;23.44;41.69;96568.63;5088632;28;20138;-76
2023/06/01 08:28:27;;;;;;;;;;;;;;;23.58;41.25;96571.28;5106358;28;19945;-75
2023/06/01 08:30:53;;;;;;;;;;;;;;;23.69;41.13;96570.00;5106451;28;20008;-74
2023/06/01 08:33:18;;;;;;;;;;;;;;;23.82;41.33;96576.47;5106248;28;19952;-75
2023/06/01 08:35:44;;;;;;;;;;;;;;;23.93;40.63;96575.13;5106800;28;20135;-83
2023/06/01 08:38:10;;;;;;;;;;;;;;;24.11;40.58;96568.84;5106278;28;19984;-77
2023/06/01 08:40:36;;;;;;;;;;;;;;;24.19;39.74;96563.84;5106242;28;19953;-72
2023/06/01 08:43:14;;;;;;;;;;;;;;;24.27;39.37;96563.94;5106520;28;19950;-72
2023/06/01 08:45:41;;;;;;;;;;;;;;;24.31;39.63;96564.91;5106706;28;19967;-77
2023/06/01 08:48:08;;;;;;;;;;;;;;;24.36;39.81;96565.88;5106746;28;19949;-77
2023/06/01 08:50:34;;;;;;;;;;;;;;;24.49;39.59;96565.09;5106795;28;19953;-77
2023/06/01 08:53:01;;;;;;;;;;;;;;;24.57;40.29;96564.34;5088436;28;19960;-77
2023/06/01 08:55:27;;;;;;;;;;;;;;;24.63;39.83;96565.81;5106129;28;20115;-77
2023/06/01 08:57:54;;;;;;;;;;;;;;;24.71;39.60;96565.09;5106579;28;19976;-78
2023/06/01 09:00:20;;;;;;;;;;;;;;;24.69;39.67;96561.09;5106083;28;19953;-78
2023/06/01 09:02:46;;;;;;;;;;;;;;;24.70;39.46;96560.03;5106076;28;19966;-77
2023/06/01 09:05:13;;;;;;;;;;;;;;;24.79;39.85;96558.16;5106091;28;19953;-77
2023/06/01 09:07:39;;;;;;;;;;;;;;;24.88;39.21;96558.22;5105875;28;20242;-77
2023/06/01 09:10:05;;;;;;;;;;;;;;;24.95;39.04;96555.91;5087797;28;19953;-79
2023/06/01 09:12:34;;;;;;;;;;;;;;;25.00;37.91;96558.44;5105870;28;19965;-79
2023/06/01 09:15:03;;;;;;;;;;;;;;;25.03;39.08;96557.03;5087584;28;20106;-78
2023/06/01 09:17:29;;;;;;;;;;;;;;;25.02;38.25;96556.25;5105953;28;19974;-72
2023/06/01 09:19:56;;;;;;;;;;;;;;;25.05;39.48;96555.63;5087453;28;19965;-72
2023/06/01 09:22:22;;;;;;;;;;;;;;;25.16;38.34;96558.03;5105863;28;20232;-73
2023/06/01 09:24:55;;;;;;;;;;;;;;;25.22;39.94;96554.13;5087981;28;19952;-72
2023/06/01 09:27:21;;;;;;;;;;;;;;;25.31;38.81;96558.44;5088094;28;19953;-73
2023/06/01 09:29:55;;;;;;;;;;;;;;;25.34;38.75;96567.78;5105077;28;20133;-72
2023/06/01 09:32:21;;;;;;;;;;;;;;;25.45;39.28;96565.59;5105521;28;19964;-79
2023/06/01 09:34:47;;;;;;;;;;;;;;;25.61;38.70;96552.53;5087150;28;19954;-77
2023/06/01 09:37:13;;;;;;;;;;;;;;;25.66;38.01;96544.31;5070837;28;19994;-78
2023/06/01 09:39:40;;;;;;;;;;;;;;;25.64;37.65;96550.03;5105636;28;19955;-78
2023/06/01 09:42:09;;;;;;;;;;;;;;;25.61;36.21;96542.59;5105543;28;19951;-79
2023/06/01 09:44:37;;;;;;;;;;;;;;;25.70;36.58;96542.59;5087176;28;19957;-79
2023/06/01 09:47:09;;;;;;;;;;;;;;;25.84;36.01;96542.47;5070611;28;19963;-73
2023/06/01 09:49:39;;;;;;;;;;;;;;;25.91;37.05;96542.81;5105115;28;19942;-73
2023/06/01 09:52:05;;;;;;;;;;;;;;;26.00;37.39;96535.56;5105648;28;20220;-74
2023/06/01 09:54:33;;;;;;;;;;;;;;;26.02;37.34;96529.88;5105442;28;20158;-72
2023/06/01 09:56:59;;;;;;;;;;;;;;;25.75;35.60;96529.03;5086940;28;19961;-72
2023/06/01 09:59:28;;;;;;;;;;;;;;;25.59;37.30;96528.69;5105049;28;20123;-73
2023/06/01 10:01:55;;;;;;;;;;;;;;;25.66;38.11;96530.91;5105181;28;19957;-72
2023/06/01 10:04:23;;;;;;;;;;;;;;;25.79;37.42;96521.94;5105187;28;19952;-73
2023/06/01 10:06:51;;;;;;;;;;;;;;;25.94;36.92;96525.28;5105190;28;19949;-72
2023/06/01 10:09:19;;;;;;;;;;;;;;;26.01;37.16;96525.59;5105281;28;19962;-74
2023/06/01 10:11:46;;;;;;;;;;;;;;;26.08;37.27;96523.22;5105578;28;19958;-78
2023/06/01 10:14:12;;;;;;;;;;;;;;;26.20;36.47;96531.44;5105068;28;19955;-78
2023/06/01 10:16:40;;;;;;;;;;;;;;;26.22;36.20;96521.16;5070710;28;19959;-79
2023/06/01 10:19:10;;;;;;;;;;;;;;;26.34;36.71;96515.16;5104661;28;20230;-78
2023/06/01 10:21:36;;;;;;;;;;;;;;;26.32;36.10;96520.06;5087078;28;19964;-78
2023/06/01 10:24:03;;;;;;;;;;;;;;;26.17;37.20;96525.94;5104760;28;19952;-78
2023/06/01 10:26:33;;;;;;;;;;;;;;;26.16;36.02;96521.66;5104751;28;19956;-73
2023/06/01 10:29:00;;;;;;;;;;;;;;;26.26;35.48;96510.59;5105084;28;19948;-73
2023/06/01 10:31:36;;;;;;;;;;;;;;;26.44;36.42;96511.38;5086627;28;19961;-74
2023/06/01 10:34:02;;;;;;;;;;;;;;;26.52;33.60;96505.97;5104876;28;20143;-74
2023/06/01 10:36:47;;;;;;;;;;;;;;;26.52;34.57;96505.97;5104344;28;19951;-74
2023/06/01 10:39:26;;;;;;;;;;;;;;;26.30;31.95;96508.84;5086921;28;19980;-74
2023/06/01 10:41:58;;;;;;;;;;;;;;;26.28;31.90;96506.47;5105083;28;19947;-73
2023/06/01 10:44:53;;;;;;;;;;;;;;;26.17;29.84;96501.75;5104733;28;19959;-74
2023/06/01 10:47:19;;;;;;;;;;;;;;;26.30;32.95;96503.47;5083183;28;19950;-72
2023/06/01 10:49:48;;;;;;;;;;;;;;;26.52;33.67;96505.16;5104833;28;20136;-73
2023/06/01 10:52:26;;;;;;;;;;;;;;;26.61;29.78;96505.97;5104787;28;19955;-73
2023/06/01 10:54:53;;;;;;;;;;;;;;;26.55;29.06;96496.47;5086873;28;19972;-73
2023/06/01 10:57:20;;;;;;;;;;;;;;;26.66;32.33;96499.63;5104679;28;20114;-72
2023/06/01 11:00:09;;;;;;;;;;;;;;;26.88;32.39;96498.63;5104225;28;19960;-72
2023/06/01 11:02:43;;;;;;;;;;;;;;;27.05;33.23;96493.16;5091345;28;20244;-72
2023/06/01 11:05:27;;;;;;;;;;;;;;;27.25;32.03;96494.34;5104086;28;20170;-73
2023/06/01 11:07:53;;;;;;;;;;;;;;;27.29;30.28;96503.38;5104619;28;20020;-73
2023/06/01 11:10:38;;;;;;;;;;;;;;;27.19;29.76;96492.16;5104514;28;19962;-73
2023/06/01 11:13:17;;;;;;;;;;;;;;;27.19;32.23;96498.31;5104290;28;19952;-73
2023/06/01 11:16:02;;;;;;;;;;;;;;;27.34;32.45;96486.25;5104729;28;20238;-73
2023/06/01 11:19:00;;;;;;;;;;;;;;;27.46;31.47;96482.84;5104184;28;19975;-73
2023/06/01 11:21:30;;;;;;;;;;;;;;;27.47;29.98;96487.13;5079425;28;19962;-73
2023/06/01 11:23:57;;;;;;;;;;;;;;;27.48;30.74;96481.41;5104109;28;19958;-75
2023/06/01 11:26:28;;;;;;;;;;;;;;;27.61;31.19;96476.88;5104206;28;19965;-75
2023/06/01 11:29:02;;;;;;;;;;;;;;;27.65;30.80;96477.78;5103676;28;19951;-74
2023/06/01 11:31:33;;;;;;;;;;;;;;;27.74;31.54;96481.25;5104238;28;20180;-74
2023/06/01 11:34:00;;;;;;;;;;;;;;;27.82;29.66;96470.72;5104021;28;19953;-74
2023/06/01 11:36:26;;;;;;;;;;;;;;;27.73;29.11;96468.88;5103803;28;20123;-75
2023/06/01 11:38:53;;;;;;;;;;;;;;;27.53;27.86;96469.66;5103939;28;19967;-74
2023/06/01 11:41:20;;;;;;;;;;;;;;;27.47;28.47;96460.97;5104255;28;19956;-73
2023/06/01 11:43:53;;;;;;;;;;;;;;;27.51;30.01;96456.50;5104053;28;20126;-74
2023/06/01 11:46:19;;;;;;;;;;;;;;;27.49;29.65;96466.03;5104004;28;20247;-74
2023/06/01 11:49:00;;;;;;;;;;;;;;;27.56;29.38;96454.75;5107940;28;19942;-74
2023/06/01 11:51:26;;;;;;;;;;;;;;;27.76;31.19;96455.84;5107695;28;20229;-74
2023/06/01 11:53:52;;;;;;;;;;;;;;;27.99;30.80;96446.34;5107330;28;19949;-74
2023/06/01 11:56:18;;;;;;;;;;;;;;;28.24;29.84;96449.13;5107608;28;19958;-75
2023/06/01 11:58:44;;;;;;;;;;;;;;;28.39;30.32;96455.78;5107639;28;20137;-73
2023/06/01 12:01:10;;;;;;;;;;;;;;;28.24;28.37;96454.53;5107520;28;19992;-73
2023/06/01 12:03:44;;;;;;;;;;;;;;;28.34;30.08;96452.19;5107440;28;20220;-73
2023/06/01 12:06:18;;;;;;;;;;;;;;;28.43;27.87;96448.63;5107153;28;19964;-73
2023/06/01 12:08:44;;;;;;;;;;;;;;;28.28;27.26;96445.44;5107555;28;20102;-73
2023/06/01 12:11:11;;;;;;;;;;;;;;;28.12;28.70;96453.38;5107514;28;19998;-74
2023/06/01 12:13:37;;;;;;;;;;;;;;;28.08;29.03;96449.75;5107214;28;19943;-73
2023/06/01 12:16:03;;;;;;;;;;;;;;;28.16;27.09;96441.91;5107238;28;20038;-72
2023/06/01 12:18:30;;;;;;;;;;;;;;;28.01;29.20;96444.09;5107338;28;19958;-73
2023/06/01 12:20:56;;;;;;;;;;;;;;;28.04;29.59;96448.84;5106965;28;19956;-79
2023/06/01 12:23:22;;;;;;;;;;;;;;;28.10;26.88;96439.44;5106960;28;19954;-78
2023/06/01 12:25:52;;;;;;;;;;;;;;;27.97;28.51;96428.91;5106643;28;19992;-79
2023/06/01 12:28:19;;;;;;;;;;;;;;;28.04;28.60;96429.97;5107009;28;19955;-78
2023/06/01 12:30:48;;;;;;;;;;;;;;;28.26;29.42;96426.09;5106691;28;19957;-78
2023/06/01 12:33:35;;;;;;;;;;;;;;;28.48;29.36;96424.13;5106694;28;20167;-78
2023/06/01 12:36:03;;;;;;;;;;;;;;;28.66;29.41;96422.03;5106793;28;19938;-73
2023/06/01 12:38:33;;;;;;;;;;;;;;;28.67;29.17;96423.63;5106904;28;20019;-76
2023/06/01 12:41:09;;;;;;;;;;;;;;;28.66;29.58;96425.53;5106516;28;19956;-84
2023/06/01 12:43:35;;;;;;;;;;;;;;;28.60;27.79;96413.41;5107049;28;20246;-83
2023/06/01 12:46:05;;;;;;;;;;;;;;;28.47;26.83;96409.84;5106291;28;19958;-82
2023/06/01 12:48:35;;;;;;;;;;;;;;;28.38;29.30;96417.25;5106570;28;20011;-84
2023/06/01 12:51:01;;;;;;;;;;;;;;;28.46;30.09;96408.28;5106556;28;20137;-84